Main page
METAR-TAF:

METAR-TAF

Airports :

Bahrain International Airport

Bahrain, Bahrain

latitude: 26-16N, longitude: 050-39E, elevation: 2 m

Current weather observation

The report was made 38 minutes ago, at 08:30 UTC
Wind 6 kt from the West
Temperature 40°C
Humidity 30%
Pressure 1004 hPa
Visibility 10 km or more
no clouds below 1500 m and no cumulonimbus

METAR: OBBI 210830Z 27006KT CAVOK 40/19 Q1004 NOSIG

Time: 12:08 (09:08 UTC)

Forecast

The report was made 4 hours and 8 minutes ago, at 05:00 UTC
Forecast valid from 21 at 06 UTC to 22 at 12 UTC
Wind 5 kt from variable directions
Visibility 10 km or more
no clouds below 1500 m and no cumulonimbus
Becoming
from 21 at 10 UTC to 21 at 12 UTC
Wind 10 kt from the East
Becoming
from 21 at 18 UTC to 21 at 20 UTC
Wind 5 kt from variable directions

TAF: OBBI 210500Z 2106/2212 VRB05KT CAVOK BECMG 2110/2112 08010KT BECMG 2118/2120 VRB05KT

Weather observations and forecasts of more than 4000 airports (METAR and TAF reports).

The available stations are represented by yellow and red dots on the map.

Hover mouse over dot to see the name of the station.

Then click to see weather observations and forecasts.

To change the map : click on the green buttons with a black cross to zoom in, on the green button with a dash to zoom out, or on the green arrows for adjacent maps.


METAR-TAF: